メインページ
METAR-TAF:

METAR-TAF

空港 :

アンマン, ヨルダン

緯度: 31-59N, 経度: 035-59E, 海抜: 767m

現時点の気象観測

当レポートは17分前の09:00(UTC)に作成
西の風 10kt
気温 29°C
湿度 20%
気圧 1016 hPa
視程: 5000m
煙霧

METAR: OJAM 200900Z 26010KT 5000 HZ NSC 29/04 Q1016 NOSIG

時間: 12:17 (09:17 UTC)

予報

当レポートは3時間26分前の05:51(UTC)に作成
予報は20日の 06時(UTC)から 21日の 12時(UTC)まで有効
西/北西の風 10kt
視程: 6000m
20日の 12時(UTC)から 20日の 21時(UTC)まで一時的に
西/北西の風 14kt
視程: 4000m
煙霧

TAF: OJAM 200551Z 2006/2112 29010KT 6000 NSC TEMPO 2012/2021 30014KT 4000 HZ NSC

4,000以上の空港の気象観測と天気予報(METAR報とTAF報)

利用可能な観測所は地図上に黄色い丸と赤い丸で示す。

丸の上にカーソルを重ねると観測所名を参照できる。

次にクリックすると気象観測と天気予報を参照できる。

マップの切り替え:黒色「×」印の緑ボタンをクリックして拡大、「-」印の緑ボタンをクリックして縮小、緑色の三角印をクリックして隣りの地図に切り替え


METAR-TAF: